Time;durP1;ratioP1;P1;durP2;ratioP2;P2;SDS_P1;SDS_P2;PMS_P1;PMS_P2;Temp;Humidity;BMP_temperature;BMP_pressure;BME280_temperature;BME280_humidity;BME280_pressure;Samples;Min_cycle;Max_cycle;Signal;HPM_P1;HPM_P2
2023/04/22 00:00:08;;;;;;;14.55;10.95;;;;;;;11.39;60.64;94312.41;4226886;28;20150;-61
2023/04/22 00:02:13;;;;;;;14.95;10.43;;;;;;;11.43;60.89;94313.69;4223863;27;20048;-60
2023/04/22 00:04:15;;;;;;;18.60;11.25;;;;;;;11.41;60.97;94307.81;4219580;28;20062;-61
2023/04/22 00:06:17;;;;;;;16.77;11.13;;;;;;;11.44;61.10;94299.59;4226663;28;20112;-58
2023/04/22 00:08:19;;;;;;;17.35;11.23;;;;;;;11.48;60.96;94307.94;4208265;28;20048;-61
2023/04/22 00:10:20;;;;;;;16.63;10.55;;;;;;;11.47;60.87;94308.94;4228384;28;20079;-60
2023/04/22 00:12:22;;;;;;;20.25;10.88;;;;;;;11.48;60.73;94310.53;4228590;28;20047;-61
2023/04/22 00:14:24;;;;;;;14.13;10.50;;;;;;;11.48;60.65;94315.78;4227793;28;20122;-61
2023/04/22 00:16:25;;;;;;;17.85;10.68;;;;;;;11.47;60.85;94309.75;4225741;28;20051;-61
2023/04/22 00:18:27;;;;;;;22.33;11.20;;;;;;;11.51;60.65;94312.00;4226988;28;20108;-61
2023/04/22 00:20:31;;;;;;;16.13;11.05;;;;;;;11.50;60.34;94311.19;4228411;28;20051;-63
2023/04/22 00:22:32;;;;;;;17.67;10.95;;;;;;;11.50;60.46;94305.94;4226328;28;20138;-61
2023/04/22 00:24:34;;;;;;;21.30;10.73;;;;;;;11.52;60.56;94303.16;4228296;28;20142;-60
2023/04/22 00:26:36;;;;;;;18.83;10.85;;;;;;;11.32;60.98;94306.22;4228201;27;20137;-61
2023/04/22 00:28:37;;;;;;;17.83;10.73;;;;;;;10.84;61.89;94308.09;4226614;28;20043;-62
2023/04/22 00:30:39;;;;;;;17.45;10.88;;;;;;;10.30;63.88;94310.56;4224177;28;20051;-61
2023/04/22 00:32:40;;;;;;;17.38;10.80;;;;;;;10.18;64.17;94316.13;4227343;28;20086;-61
2023/04/22 00:34:42;;;;;;;19.50;11.07;;;;;;;10.20;64.15;94321.19;4228131;28;20053;-62
2023/04/22 00:36:44;;;;;;;15.57;10.88;;;;;;;10.12;64.91;94319.38;4217350;28;20127;-62
2023/04/22 00:38:49;;;;;;;14.90;10.13;;;;;;;9.66;65.29;94321.69;4224054;28;20055;-61
2023/04/22 00:40:51;;;;;;;15.35;10.05;;;;;;;9.17;67.23;94327.66;4216979;28;20051;-60
2023/04/22 00:42:53;;;;;;;14.52;10.82;;;;;;;9.12;68.17;94319.47;4219174;28;20056;-61
2023/04/22 00:44:55;;;;;;;17.60;11.13;;;;;;;9.10;67.76;94324.06;4219889;28;20124;-61
2023/04/22 00:46:58;;;;;;;16.27;11.55;;;;;;;8.75;69.12;94331.09;4215319;28;20044;-61
2023/04/22 00:49:00;;;;;;;18.95;11.32;;;;;;;8.76;69.40;94321.47;4226474;28;20047;-62
2023/04/22 00:51:01;;;;;;;21.38;11.93;;;;;;;9.07;69.13;94328.75;4227158;28;20047;-61
2023/04/22 00:53:03;;;;;;;19.08;11.90;;;;;;;9.39;67.95;94328.03;4227967;28;20058;-60
2023/04/22 00:55:05;;;;;;;16.05;11.48;;;;;;;9.66;67.16;94328.72;4227590;28;20056;-62
2023/04/22 00:57:07;;;;;;;17.70;11.57;;;;;;;9.88;65.79;94327.25;4214236;28;20458;-62
2023/04/22 00:59:09;;;;;;;16.08;12.43;;;;;;;10.03;65.45;94329.03;4226599;28;20127;-60
2023/04/22 01:01:11;;;;;;;17.95;11.82;;;;;;;10.16;65.40;94331.16;4217549;28;20051;-62
2023/04/22 01:03:13;;;;;;;14.60;11.27;;;;;;;10.29;65.01;94328.06;4224385;28;20058;-61
2023/04/22 01:05:15;;;;;;;16.00;11.55;;;;;;;10.39;64.54;94333.94;4197439;28;20222;-59
2023/04/22 01:07:17;;;;;;;14.55;11.43;;;;;;;10.45;63.78;94330.66;4217573;28;20445;-61
2023/04/22 01:09:21;;;;;;;17.13;11.20;;;;;;;10.56;63.67;94332.13;4228359;28;20045;-61
2023/04/22 01:11:23;;;;;;;17.73;11.07;;;;;;;10.59;63.50;94328.34;4213223;27;20089;-63
2023/04/22 01:13:25;;;;;;;18.65;12.25;;;;;;;10.63;63.54;94332.25;4212289;28;20090;-61
2023/04/22 01:15:27;;;;;;;17.75;11.98;;;;;;;10.63;63.46;94330.44;4211774;28;20040;-61
2023/04/22 01:17:30;;;;;;;19.20;12.20;;;;;;;10.64;62.92;94334.69;4211778;28;20047;-62
2023/04/22 01:19:32;;;;;;;17.20;12.30;;;;;;;10.68;63.16;94337.00;4210933;28;20048;-62
2023/04/22 01:21:34;;;;;;;16.50;12.25;;;;;;;10.63;63.10;94332.25;4210799;28;20513;-60
2023/04/22 01:23:36;;;;;;;18.92;12.18;;;;;;;10.66;63.32;94332.72;4211798;28;20083;-61
2023/04/22 01:25:38;;;;;;;16.98;12.65;;;;;;;10.69;63.28;94336.00;4210885;28;20390;-62
2023/04/22 01:27:40;;;;;;;15.48;11.88;;;;;;;10.75;62.94;94330.06;4212691;28;20085;-61
2023/04/22 01:29:42;;;;;;;21.52;12.73;;;;;;;10.73;62.83;94326.81;4212065;28;20145;-59
2023/04/22 01:31:44;;;;;;;18.75;13.35;;;;;;;10.75;63.20;94327.47;4210576;28;20535;-60
2023/04/22 01:33:47;;;;;;;19.27;12.55;;;;;;;10.73;62.98;94329.44;4210981;28;20051;-61
2023/04/22 01:35:48;;;;;;;18.63;12.30;;;;;;;10.69;63.30;94328.13;4211906;28;20114;-61
2023/04/22 01:37:50;;;;;;;18.38;12.65;;;;;;;10.70;63.33;94327.16;4209836;28;20052;-62
2023/04/22 01:39:52;;;;;;;22.77;13.45;;;;;;;10.72;63.58;94330.44;4212180;28;20429;-60
2023/04/22 01:41:54;;;;;;;19.30;12.73;;;;;;;10.69;63.29;94323.72;4211501;28;20428;-61
2023/04/22 01:43:57;;;;;;;18.42;12.85;;;;;;;10.69;63.73;94326.34;4197374;28;20122;-62
2023/04/22 01:46:03;;;;;;;23.67;13.40;;;;;;;10.75;63.46;94325.66;4227163;28;20054;-59
2023/04/22 01:48:08;;;;;;;18.95;13.57;;;;;;;10.77;63.54;94322.88;4219116;28;20056;-61
2023/04/22 01:50:10;;;;;;;19.02;13.07;;;;;;;10.78;63.34;94314.03;4211631;28;20487;-61
2023/04/22 01:52:12;;;;;;;19.45;12.43;;;;;;;10.75;63.21;94323.03;4210075;28;20048;-61
2023/04/22 01:54:14;;;;;;;20.70;12.80;;;;;;;10.74;63.66;94317.97;4209877;28;20052;-61
2023/04/22 01:56:16;;;;;;;19.60;12.93;;;;;;;10.77;63.18;94312.38;4209443;28;20048;-61
2023/04/22 01:58:18;;;;;;;18.08;11.85;;;;;;;10.79;63.17;94313.03;4211379;28;20055;-61
2023/04/22 02:00:20;;;;;;;18.58;13.45;;;;;;;10.79;63.50;94318.28;4209963;28;20056;-61
2023/04/22 02:02:21;;;;;;;21.85;12.52;;;;;;;10.78;63.38;94317.47;4215511;28;20105;-61
2023/04/22 02:04:23;;;;;;;19.63;12.77;;;;;;;10.72;63.45;94319.94;4227798;28;20135;-64
2023/04/22 02:06:26;;;;;;;20.02;13.00;;;;;;;10.49;63.80;94322.47;4225183;28;20051;-62
2023/04/22 02:08:28;;;;;;;20.67;13.57;;;;;;;10.47;63.95;94322.63;4201032;28;20044;-61
2023/04/22 02:10:29;;;;;;;18.52;12.27;;;;;;;10.42;63.87;94317.09;4220506;28;20425;-61
2023/04/22 02:12:31;;;;;;;16.45;11.00;;;;;;;10.30;64.36;94315.78;4220990;28;20054;-62
2023/04/22 02:14:33;;;;;;;16.75;10.77;;;;;;;10.28;64.34;94321.16;4224395;28;20071;-60
2023/04/22 02:16:34;;;;;;;16.45;9.65;;;;;;;10.25;64.05;94322.31;4222905;28;20114;-61
2023/04/22 02:18:36;;;;;;;12.38;8.77;;;;;;;10.14;63.74;94320.03;4217743;28;20388;-61
2023/04/22 02:20:38;;;;;;;14.73;8.07;;;;;;;9.87;63.32;94329.03;4227269;28;20472;-59
2023/04/22 02:22:41;;;;;;;15.18;8.15;;;;;;;9.21;65.42;94328.16;4210190;28;20052;-61
2023/04/22 02:24:43;;;;;;;13.32;8.05;;;;;;;8.89;67.01;94331.50;4215192;28;20051;-61
2023/04/22 02:26:46;;;;;;;14.25;8.73;;;;;;;8.69;67.77;94328.28;4225791;28;20040;-60
2023/04/22 02:28:47;;;;;;;11.68;8.57;;;;;;;8.65;67.99;94326.97;4226007;28;20125;-60
2023/04/22 02:30:49;;;;;;;13.20;7.93;;;;;;;8.61;67.73;94329.91;4222202;28;20055;-60
2023/04/22 02:32:51;;;;;;;15.23;8.35;;;;;;;8.77;68.37;94328.34;4221127;28;20054;-60
2023/04/22 02:34:52;;;;;;;13.40;7.90;;;;;;;9.02;67.27;94331.88;4218460;28;20067;-60
2023/04/22 02:36:54;;;;;;;12.93;8.05;;;;;;;9.27;66.11;94324.91;4219402;28;20464;-59
2023/04/22 02:38:56;;;;;;;11.00;7.82;;;;;;;9.49;65.80;94333.13;4223702;28;20077;-62
2023/04/22 02:40:57;;;;;;;10.93;7.63;;;;;;;9.61;64.98;94329.19;4225949;28;20112;-58
2023/04/22 02:42:59;;;;;;;11.02;8.05;;;;;;;9.63;65.28;94328.06;4223742;28;20055;-60
2023/04/22 02:45:01;;;;;;;14.48;8.73;;;;;;;9.71;64.81;94329.06;4221581;28;20058;-58
2023/04/22 02:47:03;;;;;;;11.05;7.75;;;;;;;9.75;64.64;94328.56;4226710;28;20074;-60
2023/04/22 02:49:05;;;;;;;13.88;8.18;;;;;;;9.87;64.42;94330.84;4226201;28;20634;-60
2023/04/22 02:51:06;;;;;;;13.95;9.00;;;;;;;9.96;63.78;94335.09;4219883;28;20508;-60
2023/04/22 02:53:08;;;;;;;11.57;8.38;;;;;;;10.01;63.26;94336.25;4220365;28;20100;-61
2023/04/22 02:55:10;;;;;;;11.70;8.48;;;;;;;10.05;63.21;94334.94;4225441;28;20135;-59
2023/04/22 02:57:11;;;;;;;12.77;9.13;;;;;;;10.03;63.58;94336.91;4213514;28;20140;-60
2023/04/22 02:59:13;;;;;;;13.77;9.93;;;;;;;9.91;64.26;94345.25;4225674;28;20047;-61
2023/04/22 03:01:15;;;;;;;14.77;9.15;;;;;;;9.90;64.29;94341.00;4226287;28;20051;-63
2023/04/22 03:03:16;;;;;;;15.95;8.95;;;;;;;9.96;64.04;94338.53;4225731;28;20051;-64
2023/04/22 03:05:18;;;;;;;13.40;9.35;;;;;;;10.05;63.63;94339.34;4225241;28;20043;-61
2023/04/22 03:07:20;;;;;;;14.05;10.35;;;;;;;10.07;63.36;94342.63;4224683;28;20063;-61
2023/04/22 03:09:22;;;;;;;16.70;10.70;;;;;;;10.11;63.37;94337.88;4225148;28;20051;-61
2023/04/22 03:11:23;;;;;;;12.10;9.77;;;;;;;10.17;63.44;94338.03;4224586;28;20044;-58
2023/04/22 03:13:25;;;;;;;13.40;9.57;;;;;;;10.21;62.81;94338.50;4222156;28;20399;-61
2023/04/22 03:15:27;;;;;;;13.48;9.23;;;;;;;10.24;62.84;94341.63;4210552;28;20059;-60
2023/04/22 03:17:28;;;;;;;15.27;9.57;;;;;;;10.28;62.79;94343.91;4208022;28;20402;-60
2023/04/22 03:19:30;;;;;;;13.75;8.82;;;;;;;10.26;62.24;94341.47;4211644;28;20105;-63
2023/04/22 03:21:32;;;;;;;11.77;8.65;;;;;;;10.21;62.48;94347.19;4209886;28;20048;-59
2023/04/22 03:23:34;;;;;;;15.65;8.35;;;;;;;10.23;62.89;94347.84;4214061;28;20139;-62
2023/04/22 03:25:36;;;;;;;13.70;8.85;;;;;;;10.23;62.30;94341.78;4214118;28;20048;-62
2023/04/22 03:27:37;;;;;;;18.60;9.20;;;;;;;10.23;62.27;94345.22;4214343;28;20051;-62
2023/04/22 03:29:39;;;;;;;12.70;8.60;;;;;;;10.24;62.49;94346.06;4213780;28;20051;-61
2023/04/22 03:31:41;;;;;;;14.48;7.88;;;;;;;10.26;62.46;94351.94;4212547;28;20083;-61
2023/04/22 03:34:02;;;;;;;13.02;8.68;;;;;;;10.23;62.83;94345.22;4247220;27;20069;-61
2023/04/22 03:36:04;;;;;;;12.43;8.65;;;;;;;10.23;62.79;94352.25;4212442;28;20064;-60
2023/04/22 03:38:06;;;;;;;10.73;7.63;;;;;;;10.25;62.20;94356.34;4206793;28;20110;-61
2023/04/22 03:40:09;;;;;;;11.43;8.52;;;;;;;10.28;62.66;94349.13;4210778;28;20414;-60
2023/04/22 03:42:12;;;;;;;13.30;8.40;;;;;;;10.27;62.33;94356.19;4214419;28;20114;-60
2023/04/22 03:44:14;;;;;;;12.65;8.32;;;;;;;10.31;62.68;94362.75;4215391;28;20123;-59
2023/04/22 03:46:16;;;;;;;11.80;8.02;;;;;;;10.36;62.49;94360.44;4228859;28;20062;-62
2023/04/22 03:48:17;;;;;;;9.95;7.97;;;;;;;10.39;62.41;94365.38;4229362;28;20078;-61
2023/04/22 03:50:19;;;;;;;11.50;8.15;;;;;;;10.45;62.33;94359.47;4228339;28;20048;-62
2023/04/22 03:52:21;;;;;;;11.95;8.32;;;;;;;10.49;62.39;94354.69;4227403;28;20495;-61
2023/04/22 03:54:23;;;;;;;11.48;7.45;;;;;;;10.52;62.13;94370.09;4229636;28;20043;-59
2023/04/22 03:56:25;;;;;;;18.45;9.27;;;;;;;10.56;61.99;94366.16;4217962;27;20052;-61
2023/04/22 03:58:26;;;;;;;13.65;9.02;;;;;;;10.61;61.95;94371.72;4213039;28;20052;-62
2023/04/22 04:00:28;;;;;;;14.43;8.82;;;;;;;10.68;62.11;94369.22;4213101;28;20044;-63
2023/04/22 04:02:30;;;;;;;14.00;8.48;;;;;;;10.74;61.67;94373.00;4211972;28;20100;-63
2023/04/22 04:04:33;;;;;;;14.13;8.40;;;;;;;10.81;61.54;94368.72;4212422;28;20109;-60
2023/04/22 04:06:35;;;;;;;12.20;8.60;;;;;;;10.94;61.09;94369.00;4211340;28;20047;-61
2023/04/22 04:08:37;;;;;;;15.02;8.20;;;;;;;10.96;61.27;94361.78;4201376;28;20052;-61
2023/04/22 04:10:38;;;;;;;11.90;8.52;;;;;;;11.00;61.31;94373.56;4212801;28;20082;-61
2023/04/22 04:12:40;;;;;;;13.32;8.80;;;;;;;11.02;60.81;94376.03;4213782;28;20060;-61
2023/04/22 04:14:42;;;;;;;13.20;9.23;;;;;;;11.06;60.63;94379.94;4213550;28;20110;-63
2023/04/22 04:16:43;;;;;;;11.65;8.57;;;;;;;11.01;60.88;94377.00;4208647;28;20048;-62
2023/04/22 04:18:49;;;;;;;15.75;9.40;;;;;;;11.03;60.87;94377.63;4205295;28;20079;-60
2023/04/22 04:20:51;;;;;;;11.57;8.30;;;;;;;11.05;60.87;94373.84;4213295;28;20059;-63
2023/04/22 04:22:52;;;;;;;14.90;9.40;;;;;;;11.04;60.94;94374.84;4211648;28;20051;-63
2023/04/22 04:24:54;;;;;;;15.10;8.98;;;;;;;11.10;60.86;94377.78;4213311;28;20048;-63
2023/04/22 04:26:56;;;;;;;12.20;9.15;;;;;;;11.11;60.75;94375.00;4213327;28;20147;-63
2023/04/22 04:29:00;;;;;;;15.57;9.20;;;;;;;11.12;60.69;94375.81;4213391;28;20116;-61
2023/04/22 04:31:02;;;;;;;13.68;8.90;;;;;;;11.17;60.79;94384.81;4210085;28;20062;-62
2023/04/22 04:33:05;;;;;;;17.02;9.70;;;;;;;11.25;60.54;94379.53;4213447;28;20485;-66
2023/04/22 04:35:08;;;;;;;;;;;;;;;11.24;60.71;94383.13;4213039;28;20188;-64
2023/04/22 04:37:10;;;;;;;15.60;9.20;;;;;;;11.23;60.58;94385.94;4211087;28;19920;-62
2023/04/22 04:39:12;;;;;;;20.48;9.88;;;;;;;11.11;60.61;94388.09;4210717;28;20048;-65
2023/04/22 04:41:14;;;;;;;14.50;10.15;;;;;;;11.10;60.95;94393.50;4213227;28;20481;-64
2023/04/22 04:43:16;;;;;;;17.48;9.25;;;;;;;10.64;61.61;94394.94;4212706;28;20105;-62
2023/04/22 04:45:18;;;;;;;13.40;9.45;;;;;;;10.32;62.89;94401.03;4210296;28;20434;-62
2023/04/22 04:47:21;;;;;;;16.50;9.50;;;;;;;9.95;63.68;94398.88;4224369;28;20068;-63
2023/04/22 04:49:23;;;;;;;16.02;9.52;;;;;;;9.85;64.54;94401.63;4206929;28;20135;-64
2023/04/22 04:51:25;;;;;;;19.88;9.32;;;;;;;9.81;65.11;94414.25;4227189;28;20400;-61
2023/04/22 04:53:27;;;;;;;14.98;9.77;;;;;;;9.95;64.87;94409.34;4228305;28;20350;-60
2023/04/22 04:55:28;;;;;;;18.55;10.20;;;;;;;10.12;64.18;94416.22;4227317;28;20040;-61
2023/04/22 04:57:30;;;;;;;16.58;9.75;;;;;;;10.38;63.54;94415.28;4227630;28;20047;-61
2023/04/22 04:59:32;;;;;;;17.13;10.90;;;;;;;10.57;63.46;94420.16;4219114;28;20147;-61
2023/04/22 05:01:34;;;;;;;16.30;10.98;;;;;;;10.71;62.99;94417.84;4224453;28;20140;-61
2023/04/22 05:03:35;;;;;;;16.77;10.88;;;;;;;10.62;63.22;94412.63;4228407;28;20097;-62
2023/04/22 05:05:37;;;;;;;18.13;11.07;;;;;;;10.71;62.94;94417.84;4228495;28;20055;-62
2023/04/22 05:07:39;;;;;;;14.13;10.85;;;;;;;10.65;63.08;94421.97;4225441;28;20505;-61
2023/04/22 05:09:41;;;;;;;19.35;11.27;;;;;;;10.72;63.59;94417.69;4226915;28;20112;-60
2023/04/22 05:11:43;;;;;;;19.55;12.00;;;;;;;10.84;62.88;94421.59;4228215;28;20126;-62
2023/04/22 05:13:45;;;;;;;15.35;10.60;;;;;;;10.99;62.72;94419.13;4227867;28;20377;-62
2023/04/22 05:15:46;;;;;;;17.30;11.32;;;;;;;11.19;62.38;94416.91;4227772;28;20047;-60
2023/04/22 05:17:48;;;;;;;14.68;12.07;;;;;;;11.17;61.88;94424.13;4225186;28;20523;-61
2023/04/22 05:19:50;;;;;;;15.32;11.65;;;;;;;11.12;62.30;94423.00;4227857;28;20074;-61
2023/04/22 05:21:51;;;;;;;17.48;11.70;;;;;;;11.07;62.03;94426.94;4224998;28;20201;-61
2023/04/22 05:23:53;;;;;;;21.38;12.10;;;;;;;10.94;62.61;94426.66;4227458;28;20052;-61
2023/04/22 05:25:55;;;;;;;16.45;12.27;;;;;;;10.81;63.19;94421.94;4225731;28;20101;-61
2023/04/22 05:27:57;;;;;;;14.52;11.75;;;;;;;10.86;62.91;94424.03;4223492;28;20055;-62
2023/04/22 05:29:58;;;;;;;18.40;11.75;;;;;;;10.69;63.01;94425.91;4211967;28;20060;-60
2023/04/22 05:32:00;;;;;;;18.60;12.27;;;;;;;10.63;63.54;94432.63;4210045;28;20048;-61
2023/04/22 05:34:02;;;;;;;19.40;12.05;;;;;;;10.73;63.75;94431.59;4211609;28;20430;-61
2023/04/22 05:36:04;;;;;;;17.27;12.90;;;;;;;10.84;63.60;94433.88;4210701;28;20052;-61
2023/04/22 05:38:06;;;;;;;17.15;12.02;;;;;;;10.80;63.51;94425.53;4210922;28;20083;-61
2023/04/22 05:40:08;;;;;;;16.83;11.50;;;;;;;10.87;63.27;94433.56;4212545;28;20048;-63
2023/04/22 05:42:10;;;;;;;18.25;12.25;;;;;;;10.98;62.94;94430.56;4212268;28;20047;-61
2023/04/22 05:44:11;;;;;;;18.30;12.18;;;;;;;11.21;62.50;94433.28;4210799;28;20159;-62
2023/04/22 05:46:13;;;;;;;14.45;11.43;;;;;;;11.44;61.80;94424.66;4216256;28;20432;-59
2023/04/22 05:48:15;;;;;;;19.13;13.00;;;;;;;11.67;61.01;94433.41;4227417;28;20169;-59
2023/04/22 05:50:17;;;;;;;15.85;12.00;;;;;;;11.92;60.15;94428.06;4226889;28;20043;-60
2023/04/22 05:52:18;;;;;;;16.08;11.40;;;;;;;12.12;59.98;94425.78;4225310;28;20059;-60
2023/04/22 05:54:20;;;;;;;14.60;10.65;;;;;;;12.31;59.65;94432.38;4227226;28;20396;-61
2023/04/22 05:56:21;;;;;;;15.07;11.02;;;;;;;12.45;58.73;94429.00;4226960;27;20055;-62
2023/04/22 05:58:23;;;;;;;14.75;11.45;;;;;;;12.55;58.37;94428.75;4225892;28;20044;-59
2023/04/22 06:00:25;;;;;;;17.30;12.00;;;;;;;12.63;57.78;94422.59;4202229;28;20528;-61
2023/04/22 06:02:27;;;;;;;15.35;11.27;;;;;;;12.74;58.24;94430.06;4226470;28;20067;-62
2023/04/22 06:04:29;;;;;;;17.73;11.40;;;;;;;12.77;57.70;94420.97;4226569;28;20516;-62
2023/04/22 06:06:32;;;;;;;15.85;11.57;;;;;;;12.63;58.00;94430.50;4224041;28;20468;-61
2023/04/22 06:08:34;;;;;;;16.40;12.32;;;;;;;12.32;58.35;94427.94;4227478;28;20044;-61
2023/04/22 06:10:36;;;;;;;17.05;11.40;;;;;;;12.16;58.82;94424.44;4225903;28;20069;-62
2023/04/22 06:12:37;;;;;;;18.15;12.68;;;;;;;12.15;59.34;94430.69;4226942;28;20175;-62
2023/04/22 06:14:39;;;;;;;17.05;12.45;;;;;;;12.26;59.38;94419.78;4225399;28;20077;-61
2023/04/22 06:16:41;;;;;;;14.70;11.77;;;;;;;12.43;58.50;94417.84;4226106;28;20043;-62
2023/04/22 06:18:42;;;;;;;15.82;11.48;;;;;;;12.64;57.90;94426.84;4226714;28;20173;-62
2023/04/22 06:20:44;;;;;;;15.73;10.43;;;;;;;12.52;57.73;94423.84;4226573;28;20051;-62
2023/04/22 06:22:45;;;;;;;17.67;10.73;;;;;;;12.25;58.53;94428.66;4221346;28;20206;-61
2023/04/22 06:24:47;;;;;;;17.40;10.40;;;;;;;12.07;59.30;94423.69;4227591;28;20055;-62
2023/04/22 06:26:49;;;;;;;15.00;9.80;;;;;;;12.17;59.39;94426.06;4226507;28;20139;-60
2023/04/22 06:28:51;;;;;;;12.32;9.80;;;;;;;12.04;59.58;94426.66;4225469;28;20056;-62
2023/04/22 06:30:52;;;;;;;15.27;9.55;;;;;;;11.77;59.59;94433.22;4223708;28;20078;-62
2023/04/22 06:32:54;;;;;;;14.68;10.23;;;;;;;11.92;60.21;94433.31;4225916;28;20093;-60
2023/04/22 06:34:56;;;;;;;13.98;10.30;;;;;;;12.09;59.73;94436.66;4225502;28;20275;-59
2023/04/22 06:36:58;;;;;;;17.15;9.75;;;;;;;12.36;58.94;94434.47;4223769;28;20058;-62
2023/04/22 06:39:01;;;;;;;18.00;11.15;;;;;;;12.56;58.48;94425.13;4223459;28;20047;-61
2023/04/22 06:41:02;;;;;;;13.90;10.40;;;;;;;12.71;57.67;94430.38;4217546;28;20048;-63
2023/04/22 06:43:04;;;;;;;17.63;8.88;;;;;;;12.60;58.01;94430.81;4221263;28;20071;-61
2023/04/22 06:45:08;;;;;;;9.65;7.85;;;;;;;12.48;58.10;94433.88;4223408;28;20069;-62
2023/04/22 06:47:09;;;;;;;14.85;9.82;;;;;;;12.63;58.24;94428.66;4225377;28;20073;-62
2023/04/22 06:49:11;;;;;;;11.13;8.65;;;;;;;12.77;57.98;94436.75;4202205;28;20043;-60
2023/04/22 06:51:13;;;;;;;14.02;8.52;;;;;;;12.93;57.32;94430.50;4225136;28;20066;-60
2023/04/22 06:53:14;;;;;;;13.00;9.75;;;;;;;12.49;58.15;94429.44;4226769;28;20104;-61
2023/04/22 06:55:16;;;;;;;13.45;9.07;;;;;;;12.42;58.69;94433.78;4224023;28;20055;-62
2023/04/22 06:57:18;;;;;;;14.68;9.32;;;;;;;12.50;58.69;94431.91;4215549;28;20053;-63
2023/04/22 06:59:20;;;;;;;14.80;10.73;;;;;;;12.46;58.86;94437.69;4230191;28;20547;-62
2023/04/22 07:01:21;;;;;;;13.52;9.82;;;;;;;12.56;58.52;94432.16;4229905;28;20051;-63
2023/04/22 07:03:23;;;;;;;14.15;9.68;;;;;;;12.51;58.35;94435.34;4227584;28;20101;-62
2023/04/22 07:05:25;;;;;;;12.88;10.18;;;;;;;12.73;58.09;94438.09;4229577;28;20130;-61
2023/04/22 07:07:27;;;;;;;15.65;9.77;;;;;;;12.98;57.47;94439.50;4226404;28;20047;-62
2023/04/22 07:09:29;;;;;;;14.90;9.75;;;;;;;13.08;56.90;94439.25;4227664;28;20083;-62
2023/04/22 07:11:30;;;;;;;17.38;9.07;;;;;;;13.16;56.63;94443.59;4226050;28;20051;-60
2023/04/22 07:13:33;;;;;;;12.75;9.20;;;;;;;13.27;56.46;94438.72;4215512;28;20075;-63
2023/04/22 07:15:34;;;;;;;11.98;8.82;;;;;;;13.41;55.90;94439.72;4215003;28;20051;-63
2023/04/22 07:17:36;;;;;;;10.32;8.50;;;;;;;13.24;55.64;94448.78;4214207;28;20048;-61
2023/04/22 07:19:38;;;;;;;17.98;7.53;;;;;;;13.24;55.69;94440.88;4214667;28;20051;-62
2023/04/22 07:21:40;;;;;;;13.73;8.95;;;;;;;13.30;56.00;94445.44;4213378;28;20071;-61
2023/04/22 07:23:42;;;;;;;10.50;7.97;;;;;;;13.15;56.00;94440.16;4214733;28;20051;-62
2023/04/22 07:25:43;;;;;;;11.75;7.40;;;;;;;13.11;56.21;94444.94;4214016;28;20044;-62
2023/04/22 07:27:45;;;;;;;11.27;7.35;;;;;;;13.34;55.25;94444.09;4212368;28;20052;-62
2023/04/22 07:29:47;;;;;;;8.13;6.53;;;;;;;13.22;55.50;94450.75;4213783;28;20044;-63
2023/04/22 07:31:48;;;;;;;13.05;6.70;;;;;;;13.37;55.35;94442.91;4212835;28;20066;-62
2023/04/22 07:33:50;;;;;;;16.80;7.82;;;;;;;13.67;54.76;94443.69;4213442;28;20131;-62
2023/04/22 07:35:52;;;;;;;13.27;8.18;;;;;;;14.00;54.27;94430.88;4213028;28;20131;-62
2023/04/22 07:37:54;;;;;;;28.23;13.45;;;;;;;14.00;53.23;94449.31;4211863;28;20048;-63
2023/04/22 07:39:55;;;;;;;11.35;7.68;;;;;;;13.89;53.65;94439.28;4212534;28;20052;-63
2023/04/22 07:41:57;;;;;;;11.50;7.57;;;;;;;13.89;54.23;94441.91;4213166;28;20874;-60
2023/04/22 07:43:59;;;;;;;10.38;7.18;;;;;;;14.17;53.78;94444.63;4213318;28;20604;-62
2023/04/22 07:46:00;;;;;;;10.70;7.32;;;;;;;14.00;53.23;94446.69;4229573;28;20137;-64
2023/04/22 07:48:03;;;;;;;12.90;6.90;;;;;;;14.16;53.20;94440.38;4229742;28;20124;-60
2023/04/22 07:50:05;;;;;;;10.02;6.32;;;;;;;14.45;52.64;94441.25;4229262;28;20085;-62
2023/04/22 07:52:07;;;;;;;10.48;6.30;;;;;;;14.71;51.72;94436.25;4212084;28;20052;-60
2023/04/22 07:54:09;;;;;;;15.88;7.30;;;;;;;14.76;50.88;94437.50;4213559;28;20094;-63
2023/04/22 07:56:11;;;;;;;11.88;6.60;;;;;;;14.71;50.60;94433.63;4213134;28;20043;-62
2023/04/22 07:58:13;;;;;;;9.50;6.75;;;;;;;14.68;50.15;94430.53;4213281;28;20047;-62
2023/04/22 08:00:15;;;;;;;8.60;6.55;;;;;;;14.37;50.86;94431.69;4213419;28;20052;-62
2023/04/22 08:02:17;;;;;;;11.45;6.57;;;;;;;14.46;51.26;94429.72;4213006;28;20123;-63
2023/04/22 08:04:21;;;;;;;11.68;6.45;;;;;;;14.70;50.36;94423.25;4213300;28;20048;-61
2023/04/22 08:06:24;;;;;;;9.40;5.70;;;;;;;15.00;49.93;94426.50;4212057;28;20051;-62
2023/04/22 08:08:26;;;;;;;10.27;6.00;;;;;;;15.20;49.63;94425.81;4212819;28;20130;-62
2023/04/22 08:10:27;;;;;;;10.27;6.22;;;;;;;15.31;49.38;94426.09;4246079;27;20131;-61
2023/04/22 08:12:29;;;;;;;11.05;5.75;;;;;;;15.34;48.65;94422.25;4213595;28;20429;-61
2023/04/22 08:14:30;;;;;;;10.43;5.65;;;;;;;15.51;48.94;94420.13;4213410;28;20082;-63
2023/04/22 08:16:32;;;;;;;9.18;6.13;;;;;;;15.70;48.71;94424.66;4210815;28;20048;-62
2023/04/22 08:18:34;;;;;;;9.07;5.50;;;;;;;15.93;47.63;94419.06;4213567;28;20594;-62
2023/04/22 08:20:36;;;;;;;10.65;4.75;;;;;;;15.96;46.54;94421.31;4213247;28;20047;-62
2023/04/22 08:22:37;;;;;;;9.75;4.97;;;;;;;15.32;47.20;94424.28;4211133;28;20589;-63
2023/04/22 08:24:39;;;;;;;13.13;5.03;;;;;;;15.33;48.19;94423.25;4212208;28;20052;-63
2023/04/22 08:26:41;;;;;;;7.78;5.05;;;;;;;15.65;47.68;94415.69;4212368;28;20044;-64
2023/04/22 08:28:42;;;;;;;10.40;5.43;;;;;;;15.77;47.68;94414.16;4212949;28;20119;-63
2023/04/22 08:30:44;;;;;;;11.32;5.20;;;;;;;15.72;47.22;94409.47;4210636;28;20102;-63
2023/04/22 08:32:46;;;;;;;10.52;5.43;;;;;;;15.97;47.42;94414.22;4212806;28;20712;-64
2023/04/22 08:34:48;;;;;;;8.35;5.50;;;;;;;15.90;46.63;94410.75;4219885;28;20059;-62
2023/04/22 08:36:52;;;;;;;10.88;5.97;;;;;;;15.48;47.45;94410.75;4212204;28;20136;-60
2023/04/22 08:38:54;;;;;;;8.95;5.40;;;;;;;15.22;47.95;94414.06;4211112;28;20127;-63
2023/04/22 08:40:56;;;;;;;7.65;5.32;;;;;;;15.15;48.06;94408.75;4213175;28;20044;-65
2023/04/22 08:42:58;;;;;;;9.63;5.68;;;;;;;15.18;48.62;94404.91;4212862;28;20607;-61
2023/04/22 08:45:01;;;;;;;11.40;5.72;;;;;;;15.22;48.97;94406.16;4220374;28;20142;-62
2023/04/22 08:47:03;;;;;;;12.27;5.97;;;;;;;15.16;48.64;94401.63;4215652;28;20820;-63
2023/04/22 08:49:05;;;;;;;8.90;5.97;;;;;;;15.14;48.07;94403.66;4212526;28;20128;-62
2023/04/22 08:51:07;;;;;;;12.13;5.30;;;;;;;15.42;47.80;94392.22;4211755;28;20059;-65
2023/04/22 08:53:09;;;;;;;8.18;5.22;;;;;;;15.79;47.29;94388.38;4211374;28;20142;-64
2023/04/22 08:55:11;;;;;;;8.18;4.90;;;;;;;16.14;46.54;94393.53;4212589;28;20071;-62
2023/04/22 08:57:14;;;;;;;10.70;6.35;;;;;;;16.41;45.93;94383.78;4201932;28;20091;-64
2023/04/22 08:59:16;;;;;;;9.80;5.93;;;;;;;16.55;45.16;94384.59;4228632;28;20100;-64
2023/04/22 09:01:18;;;;;;;12.13;6.40;;;;;;;16.72;44.78;94382.38;4228543;28;20492;-62
2023/04/22 09:03:20;;;;;;;10.10;6.07;;;;;;;16.73;45.08;94382.16;4214653;28;20218;-63
2023/04/22 09:05:23;;;;;;;8.10;5.65;;;;;;;16.31;44.95;94380.75;4256855;27;20049;-64
2023/04/22 09:07:29;;;;;;;11.68;5.50;;;;;;;16.58;45.33;94382.38;4218907;28;20065;-63
2023/04/22 09:09:31;;;;;;;7.40;5.22;;;;;;;16.90;45.01;94381.75;4228339;28;20137;-62
2023/04/22 09:11:34;;;;;;;8.10;5.45;;;;;;;16.94;44.12;94382.97;4244425;27;20051;-62
2023/04/22 09:13:36;;;;;;;13.52;5.43;;;;;;;17.08;43.25;94386.41;4212326;28;20066;-61
2023/04/22 09:15:38;;;;;;;7.13;5.15;;;;;;;16.83;43.69;94373.84;4212287;28;20040;-63
2023/04/22 09:17:42;;;;;;;7.68;5.35;;;;;;;17.01;44.32;94378.47;4211514;28;20765;-62
2023/04/22 09:19:44;;;;;;;;;;;;;;;16.67;43.83;94371.56;4211851;28;20039;-61
2023/04/22 09:21:45;;;;;;;7.40;4.30;;;;;;;16.41;43.53;94375.03;4210596;28;20318;-60
2023/04/22 09:23:52;;;;;;;7.60;4.45;;;;;;;16.17;43.57;94374.59;4211139;28;20125;-61
2023/04/22 09:25:56;;;;;;;6.90;3.88;;;;;;;16.57;43.12;94374.66;4211772;28;20051;-61